Marble Falls' Hourly Summary for Wednesday, July 11, 2018
Hour Temp
(f)
RH
(%)
Solar Rad.
(MJ/m2)
Rainfall
(in)
Wind
(mph)
7/11/2018 12:00 AM 81 66 0 0 4.37
7/11/2018 1:00 AM 80 73 0 0 4.37
7/11/2018 2:00 AM 79 79 0 0 3.59
7/11/2018 3:00 AM 79 83 0 0 3.39
7/11/2018 4:00 AM 77 83 0 0 1.01
7/11/2018 5:00 AM 77 86 0 0 1.07
7/11/2018 6:00 AM 76 88 0 0 1.07
7/11/2018 7:00 AM 75 88 0.11 0 1.68
7/11/2018 8:00 AM 78 88 0.39 0 1.68
7/11/2018 9:00 AM 81 77 1.39 0 2
7/11/2018 10:00 AM 83 71 2.21 0 2.76
7/11/2018 11:00 AM 86 63 2.71 0 2.76
7/11/2018 12:00 PM 90 44 3.1 0 4.87
7/11/2018 1:00 PM 91 40 3.27 0 4.87
7/11/2018 2:00 PM 93 40 3.27 0 5.45
7/11/2018 3:00 PM 94 36 3 0 5.45
7/11/2018 4:00 PM 94 36 3 0 5.01
7/11/2018 5:00 PM 95 34 2.53 0 5.01
7/11/2018 6:00 PM 95 35 2.04 0 5.76
7/11/2018 7:00 PM 94 35 1.35 0 5.76
7/11/2018 8:00 PM 93 35 0.68 0 5.43
7/11/2018 9:00 PM 90 46 0.14 0 4.89
7/11/2018 10:00 PM 87 53 0 0 3.51
7/11/2018 11:00 PM 84 56 0 0 3.97
Data Summary 85 59 29.19 0.00 3.74